sensor_id;sensor_type;location;lat;lon;timestamp;pressure;altitude;pressure_sealevel;temperature;humidity
79118;BME280;68523;51.336;-0.846;2024-01-30T00:00:00;101075.0;;;11.35;95.6
79118;BME280;68523;51.336;-0.846;2024-01-30T00:03:00;101075.0;;;11.27;96.0
79118;BME280;68523;51.336;-0.846;2024-01-30T00:06:00;101075.0;;;11.18;96.7
79118;BME280;68523;51.336;-0.846;2024-01-30T00:09:00;101065.0;;;11.06;97.0
79118;BME280;68523;51.336;-0.846;2024-01-30T00:12:00;101055.0;;;10.96;97.4
79118;BME280;68523;51.336;-0.846;2024-01-30T00:15:00;101055.0;;;10.87;98.1
79118;BME280;68523;51.336;-0.846;2024-01-30T00:18:00;101055.0;;;10.85;98.2
79118;BME280;68523;51.336;-0.846;2024-01-30T00:21:00;101055.0;;;10.82;97.5
79118;BME280;68523;51.336;-0.846;2024-01-30T00:24:00;101065.0;;;10.83;95.1
79118;BME280;68523;51.336;-0.846;2024-01-30T00:27:00;101055.0;;;10.72;94.7
79118;BME280;68523;51.336;-0.846;2024-01-30T00:30:00;101055.0;;;10.64;94.3
79118;BME280;68523;51.336;-0.846;2024-01-30T00:33:00;101045.0;;;10.66;93.7
79118;BME280;68523;51.336;-0.846;2024-01-30T00:36:00;101035.0;;;10.58;93.6
79118;BME280;68523;51.336;-0.846;2024-01-30T00:39:00;101035.0;;;10.51;93.3
79118;BME280;68523;51.336;-0.846;2024-01-30T00:42:00;101035.0;;;10.44;93.0
79118;BME280;68523;51.336;-0.846;2024-01-30T00:45:00;101045.0;;;10.36;93.3
79118;BME280;68523;51.336;-0.846;2024-01-30T00:48:00;101055.0;;;10.35;93.3
79118;BME280;68523;51.336;-0.846;2024-01-30T00:51:00;101065.0;;;10.27;93.6
79118;BME280;68523;51.336;-0.846;2024-01-30T00:54:00;101055.0;;;10.19;93.9
79118;BME280;68523;51.336;-0.846;2024-01-30T00:57:00;101045.0;;;10.09;93.9
79118;BME280;68523;51.336;-0.846;2024-01-30T01:00:00;101045.0;;;10.01;93.9
79118;BME280;68523;51.336;-0.846;2024-01-30T01:03:01;101045.0;;;9.93;94.3
79118;BME280;68523;51.336;-0.846;2024-01-30T01:06:00;101035.0;;;9.88;94.6
79118;BME280;68523;51.336;-0.846;2024-01-30T01:09:00;101055.0;;;9.81;94.5
79118;BME280;68523;51.336;-0.846;2024-01-30T01:12:01;101055.0;;;9.77;94.6
79118;BME280;68523;51.336;-0.846;2024-01-30T01:15:00;101065.0;;;9.74;94.5
79118;BME280;68523;51.336;-0.846;2024-01-30T01:18:00;101065.0;;;9.72;94.4
79118;BME280;68523;51.336;-0.846;2024-01-30T01:21:00;101065.0;;;9.73;94.5
79118;BME280;68523;51.336;-0.846;2024-01-30T01:24:00;101065.0;;;9.68;94.6
79118;BME280;68523;51.336;-0.846;2024-01-30T01:27:00;101075.0;;;9.62;94.8
79118;BME280;68523;51.336;-0.846;2024-01-30T01:30:00;101085.0;;;9.61;95.0
79118;BME280;68523;51.336;-0.846;2024-01-30T01:33:00;101075.0;;;9.58;95.3
79118;BME280;68523;51.336;-0.846;2024-01-30T01:36:03;101075.0;;;9.54;95.6
79118;BME280;68523;51.336;-0.846;2024-01-30T01:39:00;101085.0;;;9.53;95.9
79118;BME280;68523;51.336;-0.846;2024-01-30T01:42:00;101085.0;;;9.49;96.3
79118;BME280;68523;51.336;-0.846;2024-01-30T01:45:01;101085.0;;;9.44;96.6
79118;BME280;68523;51.336;-0.846;2024-01-30T01:48:00;101065.0;;;9.42;96.6
79118;BME280;68523;51.336;-0.846;2024-01-30T01:51:00;101075.0;;;9.42;96.8
79118;BME280;68523;51.336;-0.846;2024-01-30T01:54:02;101075.0;;;9.34;96.6
79118;BME280;68523;51.336;-0.846;2024-01-30T01:57:00;101065.0;;;9.33;96.7
79118;BME280;68523;51.336;-0.846;2024-01-30T02:00:01;101085.0;;;9.26;96.7
79118;BME280;68523;51.336;-0.846;2024-01-30T02:03:01;101095.0;;;9.24;97.0
79118;BME280;68523;51.336;-0.846;2024-01-30T02:06:01;101085.0;;;9.22;97.3
79118;BME280;68523;51.336;-0.846;2024-01-30T02:09:00;101095.0;;;9.17;97.3
79118;BME280;68523;51.336;-0.846;2024-01-30T02:12:00;101095.0;;;9.15;97.6
79118;BME280;68523;51.336;-0.846;2024-01-30T02:15:00;101095.0;;;9.10;98.2
79118;BME280;68523;51.336;-0.846;2024-01-30T02:18:00;101095.0;;;9.01;98.7
79118;BME280;68523;51.336;-0.846;2024-01-30T02:21:04;101095.0;;;8.98;99.1
79118;BME280;68523;51.336;-0.846;2024-01-30T02:24:01;101085.0;;;8.92;99.5
79118;BME280;68523;51.336;-0.846;2024-01-30T02:27:00;101085.0;;;8.90;99.9
79118;BME280;68523;51.336;-0.846;2024-01-30T02:30:00;101085.0;;;8.84;100.1
79118;BME280;68523;51.336;-0.846;2024-01-30T02:33:00;101105.0;;;8.82;100.4
79118;BME280;68523;51.336;-0.846;2024-01-30T02:36:00;101105.0;;;8.81;100.6
79118;BME280;68523;51.336;-0.846;2024-01-30T02:39:00;101095.0;;;8.78;100.7
79118;BME280;68523;51.336;-0.846;2024-01-30T02:42:00;101095.0;;;8.75;100.6
79118;BME280;68523;51.336;-0.846;2024-01-30T02:45:00;101095.0;;;8.73;100.8
79118;BME280;68523;51.336;-0.846;2024-01-30T02:48:00;101085.0;;;8.72;100.9
79118;BME280;68523;51.336;-0.846;2024-01-30T02:51:00;101075.0;;;8.70;101.0
79118;BME280;68523;51.336;-0.846;2024-01-30T02:54:00;101085.0;;;8.68;101.0
79118;BME280;68523;51.336;-0.846;2024-01-30T02:57:00;101085.0;;;8.65;101.0
79118;BME280;68523;51.336;-0.846;2024-01-30T03:00:00;101095.0;;;8.64;101.1
79118;BME280;68523;51.336;-0.846;2024-01-30T03:03:00;101095.0;;;8.63;101.1
79118;BME280;68523;51.336;-0.846;2024-01-30T03:06:00;101085.0;;;8.63;101.1
79118;BME280;68523;51.336;-0.846;2024-01-30T03:09:00;101085.0;;;8.59;101.1
79118;BME280;68523;51.336;-0.846;2024-01-30T03:12:03;101075.0;;;8.61;101.1
79118;BME280;68523;51.336;-0.846;2024-01-30T03:15:00;101085.0;;;8.60;101.0
79118;BME280;68523;51.336;-0.846;2024-01-30T03:18:01;101085.0;;;8.61;101.1
79118;BME280;68523;51.336;-0.846;2024-01-30T03:21:00;101095.0;;;8.56;101.1
79118;BME280;68523;51.336;-0.846;2024-01-30T03:24:00;101095.0;;;8.59;101.2
79118;BME280;68523;51.336;-0.846;2024-01-30T03:27:00;101095.0;;;8.58;101.2
79118;BME280;68523;51.336;-0.846;2024-01-30T03:30:00;101095.0;;;8.59;101.1
79118;BME280;68523;51.336;-0.846;2024-01-30T03:33:00;101095.0;;;8.59;101.2
79118;BME280;68523;51.336;-0.846;2024-01-30T03:36:03;101085.0;;;8.59;101.3
79118;BME280;68523;51.336;-0.846;2024-01-30T03:39:01;101085.0;;;8.59;101.3
79118;BME280;68523;51.336;-0.846;2024-01-30T03:42:00;101095.0;;;8.62;101.4
79118;BME280;68523;51.336;-0.846;2024-01-30T03:45:01;101105.0;;;8.63;101.4
79118;BME280;68523;51.336;-0.846;2024-01-30T03:48:00;101105.0;;;8.65;101.3
79118;BME280;68523;51.336;-0.846;2024-01-30T03:51:00;101115.0;;;8.64;101.3
79118;BME280;68523;51.336;-0.846;2024-01-30T03:54:00;101115.0;;;8.68;101.3
79118;BME280;68523;51.336;-0.846;2024-01-30T03:57:00;101105.0;;;8.70;101.2
79118;BME280;68523;51.336;-0.846;2024-01-30T04:00:00;101105.0;;;8.71;101.3
79118;BME280;68523;51.336;-0.846;2024-01-30T04:03:00;101105.0;;;8.72;101.3
79118;BME280;68523;51.336;-0.846;2024-01-30T04:06:00;101105.0;;;8.74;101.2
79118;BME280;68523;51.336;-0.846;2024-01-30T04:09:00;101105.0;;;8.69;100.6
79118;BME280;68523;51.336;-0.846;2024-01-30T04:12:00;101115.0;;;8.68;99.2
79118;BME280;68523;51.336;-0.846;2024-01-30T04:15:00;101125.0;;;8.63;97.9
79118;BME280;68523;51.336;-0.846;2024-01-30T04:18:00;101125.0;;;8.31;94.8
79118;BME280;68523;51.336;-0.846;2024-01-30T04:21:00;101135.0;;;8.13;94.8
79118;BME280;68523;51.336;-0.846;2024-01-30T04:24:00;101145.0;;;8.05;94.3
79118;BME280;68523;51.336;-0.846;2024-01-30T04:27:00;101145.0;;;8.01;94.0
79118;BME280;68523;51.336;-0.846;2024-01-30T04:30:00;101145.0;;;7.96;93.8
79118;BME280;68523;51.336;-0.846;2024-01-30T04:33:00;101145.0;;;7.96;94.2
79118;BME280;68523;51.336;-0.846;2024-01-30T04:36:00;101155.0;;;7.92;94.3
79118;BME280;68523;51.336;-0.846;2024-01-30T04:39:00;101175.0;;;7.92;94.4
79118;BME280;68523;51.336;-0.846;2024-01-30T04:42:00;101185.0;;;7.89;94.2
79118;BME280;68523;51.336;-0.846;2024-01-30T04:45:00;101185.0;;;7.88;94.6
79118;BME280;68523;51.336;-0.846;2024-01-30T04:48:00;101195.0;;;7.86;94.6
79118;BME280;68523;51.336;-0.846;2024-01-30T04:51:00;101205.0;;;7.78;95.0
79118;BME280;68523;51.336;-0.846;2024-01-30T04:54:00;101215.0;;;7.74;95.5
79118;BME280;68523;51.336;-0.846;2024-01-30T04:57:00;101215.0;;;7.48;95.9
79118;BME280;68523;51.336;-0.846;2024-01-30T05:00:01;101225.0;;;7.32;96.6
79118;BME280;68523;51.336;-0.846;2024-01-30T05:03:00;101215.0;;;7.22;96.8
79118;BME280;68523;51.336;-0.846;2024-01-30T05:06:00;101205.0;;;7.17;97.1
79118;BME280;68523;51.336;-0.846;2024-01-30T05:09:00;101215.0;;;7.13;96.9
79118;BME280;68523;51.336;-0.846;2024-01-30T05:12:00;101225.0;;;7.11;96.8
79118;BME280;68523;51.336;-0.846;2024-01-30T05:15:00;101235.0;;;7.12;96.4
79118;BME280;68523;51.336;-0.846;2024-01-30T05:18:00;101235.0;;;7.14;96.6
79118;BME280;68523;51.336;-0.846;2024-01-30T05:21:01;101235.0;;;7.12;96.6
79118;BME280;68523;51.336;-0.846;2024-01-30T05:24:00;101235.0;;;7.13;96.8
79118;BME280;68523;51.336;-0.846;2024-01-30T05:27:00;101245.0;;;7.11;96.5
79118;BME280;68523;51.336;-0.846;2024-01-30T05:30:00;101255.0;;;7.12;96.3
79118;BME280;68523;51.336;-0.846;2024-01-30T05:33:00;101255.0;;;7.12;96.2
79118;BME280;68523;51.336;-0.846;2024-01-30T05:36:00;101255.0;;;7.14;95.8
79118;BME280;68523;51.336;-0.846;2024-01-30T05:39:00;101275.0;;;7.14;95.7
79118;BME280;68523;51.336;-0.846;2024-01-30T05:42:00;101285.0;;;7.16;95.3
79118;BME280;68523;51.336;-0.846;2024-01-30T05:45:00;101295.0;;;7.20;95.2
79118;BME280;68523;51.336;-0.846;2024-01-30T05:48:00;101285.0;;;7.17;95.0
79118;BME280;68523;51.336;-0.846;2024-01-30T05:51:00;101295.0;;;7.18;94.5
79118;BME280;68523;51.336;-0.846;2024-01-30T05:54:00;101295.0;;;7.16;94.2
79118;BME280;68523;51.336;-0.846;2024-01-30T05:57:00;101305.0;;;7.17;94.3
79118;BME280;68523;51.336;-0.846;2024-01-30T06:00:00;101315.0;;;7.15;94.3
79118;BME280;68523;51.336;-0.846;2024-01-30T06:03:00;101325.0;;;7.12;94.1
79118;BME280;68523;51.336;-0.846;2024-01-30T06:06:00;101325.0;;;7.12;94.3
79118;BME280;68523;51.336;-0.846;2024-01-30T06:09:00;101335.0;;;7.10;94.0
79118;BME280;68523;51.336;-0.846;2024-01-30T06:12:00;101325.0;;;7.11;94.1
79118;BME280;68523;51.336;-0.846;2024-01-30T06:15:00;101325.0;;;7.12;94.2
79118;BME280;68523;51.336;-0.846;2024-01-30T06:18:00;101335.0;;;7.12;94.1
79118;BME280;68523;51.336;-0.846;2024-01-30T06:21:00;101335.0;;;7.15;93.7
79118;BME280;68523;51.336;-0.846;2024-01-30T06:24:00;101355.0;;;7.14;93.5
79118;BME280;68523;51.336;-0.846;2024-01-30T06:27:00;101375.0;;;7.13;93.7
79118;BME280;68523;51.336;-0.846;2024-01-30T06:30:01;101385.0;;;7.15;93.5
79118;BME280;68523;51.336;-0.846;2024-01-30T06:33:00;101385.0;;;7.16;93.3
79118;BME280;68523;51.336;-0.846;2024-01-30T06:36:00;101385.0;;;7.15;93.1
79118;BME280;68523;51.336;-0.846;2024-01-30T06:39:00;101385.0;;;7.16;92.9
79118;BME280;68523;51.336;-0.846;2024-01-30T06:42:00;101375.0;;;7.14;93.1
79118;BME280;68523;51.336;-0.846;2024-01-30T06:45:00;101385.0;;;7.16;92.9
79118;BME280;68523;51.336;-0.846;2024-01-30T06:48:00;101385.0;;;7.15;93.1
79118;BME280;68523;51.336;-0.846;2024-01-30T06:51:00;101405.0;;;7.16;93.1
79118;BME280;68523;51.336;-0.846;2024-01-30T06:54:00;101405.0;;;7.16;93.2
79118;BME280;68523;51.336;-0.846;2024-01-30T06:57:00;101425.00000000001;;;7.18;92.5
79118;BME280;68523;51.336;-0.846;2024-01-30T07:00:00;101425.00000000001;;;7.19;92.4
79118;BME280;68523;51.336;-0.846;2024-01-30T07:03:00;101435.0;;;7.23;91.9
79118;BME280;68523;51.336;-0.846;2024-01-30T07:06:00;101425.00000000001;;;7.24;91.7
79118;BME280;68523;51.336;-0.846;2024-01-30T07:09:00;101415.0;;;7.23;91.5
79118;BME280;68523;51.336;-0.846;2024-01-30T07:12:00;101425.00000000001;;;7.25;91.4
79118;BME280;68523;51.336;-0.846;2024-01-30T07:15:00;101435.0;;;7.26;91.3
79118;BME280;68523;51.336;-0.846;2024-01-30T07:18:00;101445.0;;;7.26;90.9
79118;BME280;68523;51.336;-0.846;2024-01-30T07:21:00;101445.0;;;7.29;90.8
79118;BME280;68523;51.336;-0.846;2024-01-30T07:24:00;101455.0;;;7.31;90.5
79118;BME280;68523;51.336;-0.846;2024-01-30T07:27:00;101465.0;;;7.31;90.2
79118;BME280;68523;51.336;-0.846;2024-01-30T07:30:00;101455.0;;;7.32;90.0
79118;BME280;68523;51.336;-0.846;2024-01-30T07:33:00;101465.0;;;7.33;89.8
79118;BME280;68523;51.336;-0.846;2024-01-30T07:36:01;101475.00000000001;;;7.31;89.7
79118;BME280;68523;51.336;-0.846;2024-01-30T07:39:00;101485.0;;;7.32;89.6
79118;BME280;68523;51.336;-0.846;2024-01-30T07:42:00;101485.0;;;7.30;89.9
79118;BME280;68523;51.336;-0.846;2024-01-30T07:45:00;101495.0;;;7.28;90.1
79118;BME280;68523;51.336;-0.846;2024-01-30T07:48:00;101505.0;;;7.36;89.0
79118;BME280;68523;51.336;-0.846;2024-01-30T07:51:00;101505.0;;;7.35;89.0
79118;BME280;68523;51.336;-0.846;2024-01-30T07:54:00;101525.00000000001;;;7.31;89.5
79118;BME280;68523;51.336;-0.846;2024-01-30T07:57:00;101525.00000000001;;;7.33;89.0
79118;BME280;68523;51.336;-0.846;2024-01-30T08:00:00;101535.0;;;7.34;89.0
79118;BME280;68523;51.336;-0.846;2024-01-30T08:03:00;101545.0;;;7.36;88.1
79118;BME280;68523;51.336;-0.846;2024-01-30T08:06:01;101555.0;;;7.39;87.5
79118;BME280;68523;51.336;-0.846;2024-01-30T08:09:00;101555.0;;;7.37;88.2
79118;BME280;68523;51.336;-0.846;2024-01-30T08:12:00;101555.0;;;7.32;88.3
79118;BME280;68523;51.336;-0.846;2024-01-30T08:15:00;101555.0;;;7.37;87.7
79118;BME280;68523;51.336;-0.846;2024-01-30T08:18:00;101565.0;;;7.41;87.2
79118;BME280;68523;51.336;-0.846;2024-01-30T08:21:00;101565.0;;;7.41;87.8
79118;BME280;68523;51.336;-0.846;2024-01-30T08:24:00;101565.0;;;7.40;87.7
79118;BME280;68523;51.336;-0.846;2024-01-30T08:27:00;101575.00000000001;;;7.41;87.6
79118;BME280;68523;51.336;-0.846;2024-01-30T08:30:01;101585.0;;;7.42;87.5
79118;BME280;68523;51.336;-0.846;2024-01-30T08:33:00;101585.0;;;7.42;88.0
79118;BME280;68523;51.336;-0.846;2024-01-30T08:36:00;101595.0;;;7.40;87.7
79118;BME280;68523;51.336;-0.846;2024-01-30T08:39:00;101595.0;;;7.41;88.0
79118;BME280;68523;51.336;-0.846;2024-01-30T08:42:00;101605.0;;;7.43;88.0
79118;BME280;68523;51.336;-0.846;2024-01-30T08:45:00;101605.0;;;7.42;88.0
79118;BME280;68523;51.336;-0.846;2024-01-30T08:48:00;101615.0;;;7.40;88.3
79118;BME280;68523;51.336;-0.846;2024-01-30T08:51:00;101615.0;;;7.41;88.5
79118;BME280;68523;51.336;-0.846;2024-01-30T08:54:00;101625.00000000001;;;7.42;88.2
79118;BME280;68523;51.336;-0.846;2024-01-30T08:57:00;101625.00000000001;;;7.44;88.1
79118;BME280;68523;51.336;-0.846;2024-01-30T09:00:00;101635.0;;;7.45;88.2
79118;BME280;68523;51.336;-0.846;2024-01-30T09:03:01;101635.0;;;7.48;88.2
79118;BME280;68523;51.336;-0.846;2024-01-30T09:06:00;101645.0;;;7.50;88.3
79118;BME280;68523;51.336;-0.846;2024-01-30T09:09:00;101645.0;;;7.51;88.3
79118;BME280;68523;51.336;-0.846;2024-01-30T09:12:00;101655.0;;;7.62;88.5
79118;BME280;68523;51.336;-0.846;2024-01-30T09:15:00;101655.0;;;7.60;88.5
79118;BME280;68523;51.336;-0.846;2024-01-30T09:18:00;101665.0;;;7.56;87.9
79118;BME280;68523;51.336;-0.846;2024-01-30T09:21:00;101665.0;;;7.61;88.3
79118;BME280;68523;51.336;-0.846;2024-01-30T09:24:02;101675.00000000001;;;7.58;88.2
79118;BME280;68523;51.336;-0.846;2024-01-30T09:27:00;101675.00000000001;;;7.59;88.2
79118;BME280;68523;51.336;-0.846;2024-01-30T09:30:00;101685.0;;;7.63;88.1
79118;BME280;68523;51.336;-0.846;2024-01-30T09:33:00;101685.0;;;7.66;88.1
79118;BME280;68523;51.336;-0.846;2024-01-30T09:36:00;101685.0;;;7.66;87.7
79118;BME280;68523;51.336;-0.846;2024-01-30T09:39:00;101695.0;;;7.74;87.9
79118;BME280;68523;51.336;-0.846;2024-01-30T09:42:02;101705.0;;;7.73;88.1
79118;BME280;68523;51.336;-0.846;2024-01-30T09:45:01;101705.0;;;7.74;88.0
79118;BME280;68523;51.336;-0.846;2024-01-30T09:48:00;101705.0;;;7.75;88.1
79118;BME280;68523;51.336;-0.846;2024-01-30T09:51:01;101715.0;;;7.74;87.6
79118;BME280;68523;51.336;-0.846;2024-01-30T09:54:01;101715.0;;;7.73;87.9
79118;BME280;68523;51.336;-0.846;2024-01-30T09:57:00;101715.0;;;7.74;86.8
79118;BME280;68523;51.336;-0.846;2024-01-30T10:00:00;101725.00000000001;;;7.83;87.0
79118;BME280;68523;51.336;-0.846;2024-01-30T10:03:00;101735.0;;;7.82;87.1
79118;BME280;68523;51.336;-0.846;2024-01-30T10:06:01;101735.0;;;7.80;86.8
79118;BME280;68523;51.336;-0.846;2024-01-30T10:09:00;101745.0;;;7.74;86.4
79118;BME280;68523;51.336;-0.846;2024-01-30T10:12:01;101755.0;;;7.73;85.8
79118;BME280;68523;51.336;-0.846;2024-01-30T10:15:00;101765.0;;;7.70;85.8
79118;BME280;68523;51.336;-0.846;2024-01-30T10:18:00;101765.0;;;7.72;85.7
79118;BME280;68523;51.336;-0.846;2024-01-30T10:21:00;101775.00000000001;;;7.74;85.8
79118;BME280;68523;51.336;-0.846;2024-01-30T10:24:00;101775.00000000001;;;7.73;85.6
79118;BME280;68523;51.336;-0.846;2024-01-30T10:27:00;101785.0;;;7.79;86.0
79118;BME280;68523;51.336;-0.846;2024-01-30T10:30:00;101785.0;;;7.76;85.1
79118;BME280;68523;51.336;-0.846;2024-01-30T10:33:02;101795.0;;;7.72;84.1
79118;BME280;68523;51.336;-0.846;2024-01-30T10:36:02;101795.0;;;7.75;84.5
79118;BME280;68523;51.336;-0.846;2024-01-30T10:39:01;101805.0;;;7.75;84.7
79118;BME280;68523;51.336;-0.846;2024-01-30T10:42:04;101805.0;;;7.70;84.4
79118;BME280;68523;51.336;-0.846;2024-01-30T10:45:05;101805.0;;;7.78;84.4
79118;BME280;68523;51.336;-0.846;2024-01-30T10:48:01;101805.0;;;7.80;84.6
79118;BME280;68523;51.336;-0.846;2024-01-30T10:51:02;101815.0;;;7.85;85.2
79118;BME280;68523;51.336;-0.846;2024-01-30T10:54:01;101825.00000000001;;;7.84;85.3
79118;BME280;68523;51.336;-0.846;2024-01-30T10:57:00;101835.0;;;7.78;85.3
79118;BME280;68523;51.336;-0.846;2024-01-30T11:00:02;101845.0;;;7.77;85.3
79118;BME280;68523;51.336;-0.846;2024-01-30T11:03:00;101855.0;;;7.74;85.6
79118;BME280;68523;51.336;-0.846;2024-01-30T11:06:00;101855.0;;;7.72;85.6
79118;BME280;68523;51.336;-0.846;2024-01-30T11:09:01;101855.0;;;7.71;86.0
79118;BME280;68523;51.336;-0.846;2024-01-30T11:12:00;101855.0;;;7.71;86.1
79118;BME280;68523;51.336;-0.846;2024-01-30T11:15:03;101855.0;;;7.69;85.5
79118;BME280;68523;51.336;-0.846;2024-01-30T11:18:01;101865.0;;;7.73;85.5
79118;BME280;68523;51.336;-0.846;2024-01-30T11:21:00;101865.0;;;7.75;85.6
79118;BME280;68523;51.336;-0.846;2024-01-30T11:24:02;101875.00000000001;;;7.72;85.2
79118;BME280;68523;51.336;-0.846;2024-01-30T11:27:02;101875.00000000001;;;7.68;85.6
79118;BME280;68523;51.336;-0.846;2024-01-30T11:30:02;101875.00000000001;;;7.67;86.0
79118;BME280;68523;51.336;-0.846;2024-01-30T11:33:02;101875.00000000001;;;7.63;85.8
79118;BME280;68523;51.336;-0.846;2024-01-30T11:36:01;101885.0;;;7.62;86.3
79118;BME280;68523;51.336;-0.846;2024-01-30T11:39:01;101885.0;;;7.57;86.0
79118;BME280;68523;51.336;-0.846;2024-01-30T11:42:00;101895.0;;;7.50;85.4
79118;BME280;68523;51.336;-0.846;2024-01-30T11:45:00;101885.0;;;7.53;85.3
79118;BME280;68523;51.336;-0.846;2024-01-30T11:48:00;101885.0;;;7.47;84.6
79118;BME280;68523;51.336;-0.846;2024-01-30T11:51:00;101895.0;;;7.51;85.2
79118;BME280;68523;51.336;-0.846;2024-01-30T11:54:00;101895.0;;;7.49;84.4
79118;BME280;68523;51.336;-0.846;2024-01-30T11:57:01;101895.0;;;7.52;84.7
79118;BME280;68523;51.336;-0.846;2024-01-30T12:00:00;101895.0;;;7.54;84.8
79118;BME280;68523;51.336;-0.846;2024-01-30T12:03:00;101905.0;;;7.53;84.5
79118;BME280;68523;51.336;-0.846;2024-01-30T12:06:02;101905.0;;;7.56;84.9
79118;BME280;68523;51.336;-0.846;2024-01-30T12:09:02;101905.0;;;7.59;84.9
79118;BME280;68523;51.336;-0.846;2024-01-30T12:12:00;101905.0;;;7.60;84.7
79118;BME280;68523;51.336;-0.846;2024-01-30T12:15:02;101905.0;;;7.65;83.8
79118;BME280;68523;51.336;-0.846;2024-01-30T12:18:04;101915.0;;;7.61;82.3
79118;BME280;68523;51.336;-0.846;2024-01-30T12:21:01;101915.0;;;7.66;82.0
79118;BME280;68523;51.336;-0.846;2024-01-30T12:24:00;101915.0;;;7.65;82.0
79118;BME280;68523;51.336;-0.846;2024-01-30T12:27:00;101915.0;;;7.66;81.7
79118;BME280;68523;51.336;-0.846;2024-01-30T12:30:00;101905.0;;;7.72;81.6
79118;BME280;68523;51.336;-0.846;2024-01-30T12:33:00;101915.0;;;7.75;82.2
79118;BME280;68523;51.336;-0.846;2024-01-30T12:36:01;101925.00000000001;;;7.70;81.6
79118;BME280;68523;51.336;-0.846;2024-01-30T12:39:01;101935.0;;;7.64;81.5
79118;BME280;68523;51.336;-0.846;2024-01-30T12:42:00;101935.0;;;7.62;81.8
79118;BME280;68523;51.336;-0.846;2024-01-30T12:45:02;101935.0;;;7.63;81.8
79118;BME280;68523;51.336;-0.846;2024-01-30T12:48:00;101945.0;;;7.61;82.1
79118;BME280;68523;51.336;-0.846;2024-01-30T12:51:00;101935.0;;;7.61;82.1
79118;BME280;68523;51.336;-0.846;2024-01-30T12:54:04;101945.0;;;7.62;82.6
79118;BME280;68523;51.336;-0.846;2024-01-30T12:57:00;101955.0;;;7.58;82.7
79118;BME280;68523;51.336;-0.846;2024-01-30T13:00:00;101945.0;;;7.59;82.5
79118;BME280;68523;51.336;-0.846;2024-01-30T13:03:00;101955.0;;;7.57;82.7
79118;BME280;68523;51.336;-0.846;2024-01-30T13:06:00;101955.0;;;7.54;83.1
79118;BME280;68523;51.336;-0.846;2024-01-30T13:09:00;101955.0;;;7.53;83.0
79118;BME280;68523;51.336;-0.846;2024-01-30T13:12:00;101965.0;;;7.48;83.6
79118;BME280;68523;51.336;-0.846;2024-01-30T13:15:00;101965.0;;;7.48;83.6
79118;BME280;68523;51.336;-0.846;2024-01-30T13:18:00;101965.0;;;7.43;83.5
79118;BME280;68523;51.336;-0.846;2024-01-30T13:21:00;101965.0;;;7.43;83.4
79118;BME280;68523;51.336;-0.846;2024-01-30T13:24:00;101975.00000000001;;;7.38;83.0
79118;BME280;68523;51.336;-0.846;2024-01-30T13:27:00;101975.00000000001;;;7.33;82.3
79118;BME280;68523;51.336;-0.846;2024-01-30T13:30:00;101985.0;;;7.34;82.4
79118;BME280;68523;51.336;-0.846;2024-01-30T13:33:00;101985.0;;;7.39;82.8
79118;BME280;68523;51.336;-0.846;2024-01-30T13:36:00;101985.0;;;7.37;82.4
79118;BME280;68523;51.336;-0.846;2024-01-30T13:39:00;101985.0;;;7.39;82.1
79118;BME280;68523;51.336;-0.846;2024-01-30T13:42:00;101985.0;;;7.42;81.9
79118;BME280;68523;51.336;-0.846;2024-01-30T13:45:00;101985.0;;;7.48;82.2
79118;BME280;68523;51.336;-0.846;2024-01-30T13:48:00;101985.0;;;7.46;81.3
79118;BME280;68523;51.336;-0.846;2024-01-30T13:51:00;101985.0;;;7.47;81.2
79118;BME280;68523;51.336;-0.846;2024-01-30T13:54:00;101985.0;;;7.51;80.9
79118;BME280;68523;51.336;-0.846;2024-01-30T13:57:00;101995.0;;;7.53;80.8
79118;BME280;68523;51.336;-0.846;2024-01-30T14:00:00;101995.0;;;7.55;80.8
79118;BME280;68523;51.336;-0.846;2024-01-30T14:03:00;102005.0;;;7.61;81.2
79118;BME280;68523;51.336;-0.846;2024-01-30T14:06:00;102015.0;;;7.59;81.1
79118;BME280;68523;51.336;-0.846;2024-01-30T14:09:00;102015.0;;;7.60;81.2
79118;BME280;68523;51.336;-0.846;2024-01-30T14:12:00;102025.00000000001;;;7.57;81.4
79118;BME280;68523;51.336;-0.846;2024-01-30T14:15:00;102025.00000000001;;;7.56;81.4
79118;BME280;68523;51.336;-0.846;2024-01-30T14:18:00;102015.0;;;7.50;80.9
79118;BME280;68523;51.336;-0.846;2024-01-30T14:21:00;102015.0;;;7.53;81.6
79118;BME280;68523;51.336;-0.846;2024-01-30T14:24:00;102015.0;;;7.56;82.0
79118;BME280;68523;51.336;-0.846;2024-01-30T14:27:00;102015.0;;;7.52;81.4
79118;BME280;68523;51.336;-0.846;2024-01-30T14:30:00;102015.0;;;7.51;81.6
79118;BME280;68523;51.336;-0.846;2024-01-30T14:33:01;102015.0;;;7.49;81.6
79118;BME280;68523;51.336;-0.846;2024-01-30T14:36:00;102015.0;;;7.50;81.9
79118;BME280;68523;51.336;-0.846;2024-01-30T14:39:00;102025.00000000001;;;7.53;81.9
79118;BME280;68523;51.336;-0.846;2024-01-30T14:42:00;102025.00000000001;;;7.49;82.3
79118;BME280;68523;51.336;-0.846;2024-01-30T14:45:01;102015.0;;;7.54;82.6
79118;BME280;68523;51.336;-0.846;2024-01-30T14:48:00;102025.00000000001;;;7.49;82.5
79118;BME280;68523;51.336;-0.846;2024-01-30T14:51:01;102035.0;;;7.50;82.7
79118;BME280;68523;51.336;-0.846;2024-01-30T14:54:00;102035.0;;;7.50;82.3
79118;BME280;68523;51.336;-0.846;2024-01-30T14:57:00;102035.0;;;7.53;82.6
79118;BME280;68523;51.336;-0.846;2024-01-30T15:00:00;102035.0;;;7.47;82.9
79118;BME280;68523;51.336;-0.846;2024-01-30T15:03:00;102035.0;;;7.51;82.9
79118;BME280;68523;51.336;-0.846;2024-01-30T15:06:00;102045.0;;;7.53;82.7
79118;BME280;68523;51.336;-0.846;2024-01-30T15:09:00;102055.0;;;7.53;82.5
79118;BME280;68523;51.336;-0.846;2024-01-30T15:12:00;102055.0;;;7.57;81.3
79118;BME280;68523;51.336;-0.846;2024-01-30T15:15:00;102065.0;;;7.59;82.1
79118;BME280;68523;51.336;-0.846;2024-01-30T15:18:00;102065.0;;;7.53;82.2
79118;BME280;68523;51.336;-0.846;2024-01-30T15:21:01;102065.0;;;7.49;81.3
79118;BME280;68523;51.336;-0.846;2024-01-30T15:24:01;102065.0;;;7.55;82.3
79118;BME280;68523;51.336;-0.846;2024-01-30T15:27:01;102075.00000000001;;;7.49;82.4
79118;BME280;68523;51.336;-0.846;2024-01-30T15:30:00;102075.00000000001;;;7.49;82.2
79118;BME280;68523;51.336;-0.846;2024-01-30T15:33:00;102075.00000000001;;;7.46;82.9
79118;BME280;68523;51.336;-0.846;2024-01-30T15:36:01;102075.00000000001;;;7.46;82.9
79118;BME280;68523;51.336;-0.846;2024-01-30T15:39:00;102075.00000000001;;;7.45;82.9
79118;BME280;68523;51.336;-0.846;2024-01-30T15:42:00;102095.0;;;7.44;82.6
79118;BME280;68523;51.336;-0.846;2024-01-30T15:45:00;102095.0;;;7.39;82.8
79118;BME280;68523;51.336;-0.846;2024-01-30T15:48:00;102095.0;;;7.39;82.1